Time;durP1;ratioP1;P1;durP2;ratioP2;P2;SDS_P1;SDS_P2;PMS_P1;PMS_P2;Temp;Humidity;BMP_temperature;BMP_pressure;BME280_temperature;BME280_humidity;BME280_pressure;Samples;Min_cycle;Max_cycle;Signal;HPM_P1;HPM_P2
2021/10/12 00:00:52;;;;;;;35.17;19.58;;;;;;;;;;6267365;22;20218;-90
2021/10/12 00:03:58;;;;;;;38.92;19.73;;;;;;;;;;6272219;22;20178;-90
2021/10/12 00:07:06;;;;;;;36.72;19.02;;;;;;;;;;6272924;22;20178;-90
2021/10/12 00:10:12;;;;;;;44.67;20.55;;;;;;;;;;6271495;22;20189;-90
2021/10/12 00:13:17;;;;;;;45.15;20.73;;;;;;;;;;6272973;22;20246;-91
2021/10/12 00:16:22;;;;;;;35.05;19.63;;;;;;;;;;6271554;22;20206;-91
2021/10/12 00:19:30;;;;;;;41.28;19.95;;;;;;;;;;6271541;22;20154;-92
2021/10/12 00:22:36;;;;;;;35.25;18.65;;;;;;;;;;6272380;22;20197;-91
2021/10/12 00:25:41;;;;;;;38.10;19.38;;;;;;;;;;6271224;22;20620;-91
2021/10/12 00:28:48;;;;;;;36.90;19.33;;;;;;;;;;6272191;22;20192;-91
2021/10/12 00:31:55;;;;;;;38.45;19.27;;;;;;;;;;6272395;22;20221;-90
2021/10/12 00:35:02;;;;;;;40.20;18.58;;;;;;;;;;6269586;22;20222;-89
2021/10/12 00:38:08;;;;;;;33.10;18.35;;;;;;;;;;6272050;22;20170;-90
2021/10/12 00:41:13;;;;;;;38.30;17.70;;;;;;;;;;6270112;22;20177;-91
2021/10/12 00:44:18;;;;;;;39.03;19.85;;;;;;;;;;6272016;22;20181;-90
2021/10/12 00:47:23;;;;;;;40.85;19.38;;;;;;;;;;6269228;22;20182;-89
2021/10/12 00:50:32;;;;;;;43.50;19.97;;;;;;;;;;6270026;22;20173;-90
2021/10/12 00:53:38;;;;;;;42.97;21.53;;;;;;;;;;6271277;22;20161;-90
2021/10/12 00:56:43;;;;;;;49.20;22.53;;;;;;;;;;6286349;22;20364;-90
2021/10/12 00:59:48;;;;;;;42.83;21.40;;;;;;;;;;6270459;22;20247;-89
2021/10/12 01:02:55;;;;;;;47.33;22.15;;;;;;;;;;6272199;22;20714;-91
2021/10/12 01:06:02;;;;;;;48.03;22.40;;;;;;;;;;6253886;22;20169;-92
2021/10/12 01:09:08;;;;;;;44.97;22.13;;;;;;;;;;6272390;22;20244;-90
2021/10/12 01:12:13;;;;;;;49.13;23.07;;;;;;;;;;6272541;22;20173;-91
2021/10/12 01:15:18;;;;;;;47.30;21.93;;;;;;;;;;6271221;22;20236;-90
2021/10/12 01:18:23;;;;;;;48.23;23.40;;;;;;;;;;6271387;22;20246;-91
2021/10/12 01:21:30;;;;;;;51.93;23.70;;;;;;;;;;6272623;22;20166;-92
2021/10/12 01:24:35;;;;;;;45.47;22.33;;;;;;;;;;6289764;22;20600;-91
2021/10/12 01:27:40;;;;;;;49.37;22.57;;;;;;;;;;6272651;22;20158;-91
2021/10/12 01:30:46;;;;;;;52.30;23.20;;;;;;;;;;6288469;22;20297;-90
2021/10/12 01:33:51;;;;;;;55.27;22.70;;;;;;;;;;6271350;22;20477;-92
2021/10/12 01:36:58;;;;;;;44.77;21.37;;;;;;;;;;6272054;22;20161;-91
2021/10/12 01:40:03;;;;;;;48.47;22.10;;;;;;;;;;6271534;22;20196;-91
2021/10/12 01:43:08;;;;;;;46.10;21.20;;;;;;;;;;6254103;22;20189;-91
2021/10/12 01:46:13;;;;;;;44.47;21.10;;;;;;;;;;6270877;22;20254;-90
2021/10/12 02:06:57;;;;;;;40.93;19.40;;;;;;;;;;6250637;22;20293;-89
2021/10/12 02:10:02;;;;;;;43.43;19.07;;;;;;;;;;6271518;22;20225;-91
2021/10/12 02:13:07;;;;;;;38.93;17.90;;;;;;;;;;6270619;22;20262;-90
2021/10/12 02:16:12;;;;;;;45.97;17.87;;;;;;;;;;6270726;22;20169;-91
2021/10/12 02:19:17;;;;;;;47.53;18.93;;;;;;;;;;6270230;22;20248;-91
2021/10/12 02:22:24;;;;;;;41.33;18.07;;;;;;;;;;6271703;22;20193;-90
2021/10/12 02:25:29;;;;;;;37.37;16.57;;;;;;;;;;6270712;22;20165;-90
2021/10/12 02:28:34;;;;;;;38.40;17.27;;;;;;;;;;6273785;22;20170;-92
2021/10/12 02:31:40;;;;;;;35.50;16.40;;;;;;;;;;6269818;22;20208;-90
2021/10/12 02:34:45;;;;;;;36.50;16.40;;;;;;;;;;6271815;22;20165;-90
2021/10/12 02:37:52;;;;;;;35.50;15.97;;;;;;;;;;6272743;22;20174;-89
2021/10/12 02:40:57;;;;;;;35.13;15.27;;;;;;;;;;6270960;22;20495;-89
2021/10/12 02:44:02;;;;;;;34.43;15.60;;;;;;;;;;6271791;22;20234;-91
2021/10/12 02:47:07;;;;;;;31.93;15.47;;;;;;;;;;6271550;22;20178;-91
2021/10/12 02:50:13;;;;;;;38.90;15.83;;;;;;;;;;6271543;22;20200;-90
2021/10/12 02:53:19;;;;;;;37.93;15.93;;;;;;;;;;6270868;22;20185;-89
2021/10/12 02:56:24;;;;;;;30.27;14.20;;;;;;;;;;6270631;22;20201;-90
2021/10/12 02:59:31;;;;;;;33.60;15.53;;;;;;;;;;6288602;22;20192;-90
2021/10/12 03:02:36;;;;;;;36.03;15.10;;;;;;;;;;6269941;22;20506;-91
2021/10/12 03:05:44;;;;;;;37.73;15.30;;;;;;;;;;6270258;22;20236;-91
2021/10/12 03:08:50;;;;;;;30.03;14.37;;;;;;;;;;6271137;22;20280;-91
2021/10/12 03:11:56;;;;;;;30.47;15.13;;;;;;;;;;6290777;22;20189;-90
2021/10/12 03:15:01;;;;;;;32.33;14.83;;;;;;;;;;6273420;22;20538;-90
2021/10/12 03:18:06;;;;;;;36.07;15.63;;;;;;;;;;6273271;22;20504;-91
2021/10/12 03:21:13;;;;;;;36.77;14.83;;;;;;;;;;6272654;22;20184;-91
2021/10/12 03:24:20;;;;;;;28.60;13.53;;;;;;;;;;6271650;22;20236;-91
2021/10/12 03:27:26;;;;;;;32.23;14.30;;;;;;;;;;6270596;22;20166;-91
2021/10/12 03:30:32;;;;;;;36.03;14.93;;;;;;;;;;6270090;22;20309;-91
2021/10/12 03:33:37;;;;;;;27.83;12.57;;;;;;;;;;6273079;22;20185;-90
2021/10/12 03:36:42;;;;;;;33.27;14.03;;;;;;;;;;6270658;22;20246;-90
2021/10/12 03:39:49;;;;;;;31.43;14.30;;;;;;;;;;6272946;22;20165;-91
2021/10/12 03:42:54;;;;;;;26.37;13.10;;;;;;;;;;6273102;22;20185;-89
2021/10/12 03:45:59;;;;;;;38.03;15.43;;;;;;;;;;6274649;22;20212;-90
2021/10/12 03:49:04;;;;;;;29.77;14.03;;;;;;;;;;6275478;22;20608;-90
2021/10/12 03:52:09;;;;;;;30.87;13.37;;;;;;;;;;6293072;22;20169;-92
2021/10/12 03:55:16;;;;;;;26.67;12.27;;;;;;;;;;6273123;22;20269;-91
2021/10/12 03:58:21;;;;;;;26.47;12.43;;;;;;;;;;6272157;22;20228;-90
2021/10/12 04:01:30;;;;;;;26.47;11.80;;;;;;;;;;6273200;22;20162;-91
2021/10/12 04:04:35;;;;;;;27.67;12.40;;;;;;;;;;6290680;22;20197;-89
2021/10/12 04:07:40;;;;;;;28.17;11.90;;;;;;;;;;6274720;22;20276;-91
2021/10/12 04:10:46;;;;;;;28.90;11.93;;;;;;;;;;6289324;22;20225;-91
2021/10/12 04:13:51;;;;;;;30.07;13.13;;;;;;;;;;6290664;22;20177;-89
2021/10/12 04:16:56;;;;;;;26.27;11.90;;;;;;;;;;6290751;22;20238;-88
2021/10/12 04:20:02;;;;;;;29.63;12.53;;;;;;;;;;6290476;22;20170;-89
2021/10/12 04:23:09;;;;;;;31.70;12.73;;;;;;;;;;6293901;22;20194;-91
2021/10/12 04:26:19;;;;;;;34.20;12.70;;;;;;;;;;6291825;22;20161;-91
2021/10/12 04:29:24;;;;;;;27.63;13.03;;;;;;;;;;6291031;22;20165;-90
2021/10/12 04:32:29;;;;;;;26.77;12.27;;;;;;;;;;6291548;22;20182;-90
2021/10/12 04:35:35;;;;;;;25.37;12.17;;;;;;;;;;6289164;22;20201;-91
2021/10/12 04:38:40;;;;;;;26.13;12.17;;;;;;;;;;6291757;22;20216;-91
2021/10/12 04:41:46;;;;;;;28.90;12.00;;;;;;;;;;6293944;22;20174;-91
2021/10/12 04:44:53;;;;;;;26.37;12.43;;;;;;;;;;6289804;22;20241;-90
2021/10/12 04:47:59;;;;;;;27.00;12.20;;;;;;;;;;6290752;22;20169;-90
2021/10/12 04:51:04;;;;;;;23.80;11.87;;;;;;;;;;6292300;22;20169;-92
2021/10/12 04:54:09;;;;;;;26.67;12.00;;;;;;;;;;6292083;22;20173;-91
2021/10/12 04:57:16;;;;;;;23.83;10.60;;;;;;;;;;6293288;22;20166;-91
2021/10/12 05:00:21;;;;;;;24.57;11.23;;;;;;;;;;6292165;22;20174;-92
2021/10/12 05:03:27;;;;;;;32.23;12.50;;;;;;;;;;6292207;22;20215;-92
2021/10/12 05:06:32;;;;;;;24.30;11.93;;;;;;;;;;6294543;22;20173;-92
2021/10/12 05:09:37;;;;;;;25.73;11.40;;;;;;;;;;6272865;22;20169;-92
2021/10/12 05:12:45;;;;;;;24.87;12.23;;;;;;;;;;6275063;22;20193;-91
2021/10/12 05:15:51;;;;;;;28.77;11.50;;;;;;;;;;6292977;22;20174;-91
2021/10/12 05:18:59;;;;;;;25.53;11.80;;;;;;;;;;6276748;22;20244;-91
2021/10/12 05:22:04;;;;;;;28.70;12.23;;;;;;;;;;6275638;22;20165;-90
2021/10/12 05:25:11;;;;;;;28.87;12.03;;;;;;;;;;6273927;22;20205;-90
2021/10/12 05:28:18;;;;;;;28.20;12.00;;;;;;;;;;6274923;22;20193;-91
2021/10/12 05:31:24;;;;;;;27.60;12.37;;;;;;;;;;6275745;22;20220;-91
2021/10/12 05:37:49;;;;;;;25.00;12.00;;;;;;;;;;6278872;22;20165;-89
2021/10/12 05:40:54;;;;;;;22.90;10.30;;;;;;;;;;6275334;22;20280;-91
2021/10/12 05:44:23;;;;;;;27.53;12.07;;;;;;;;;;6275867;22;20260;-92
2021/10/12 05:47:30;;;;;;;28.93;12.63;;;;;;;;;;6275360;22;20185;-91
2021/10/12 05:50:36;;;;;;;251.97;149.70;;;;;;;;;;6275556;22;20174;-91
2021/10/12 05:53:46;;;;;;;30.30;12.50;;;;;;;;;;6277691;22;20178;-89
2021/10/12 05:57:04;;;;;;;36.90;16.00;;;;;;;;;;6276161;22;20257;-92
2021/10/12 06:00:10;;;;;;;23.57;11.97;;;;;;;;;;6274816;22;20174;-91
2021/10/12 06:03:20;;;;;;;29.23;12.00;;;;;;;;;;6273974;22;20188;-89
2021/10/12 06:06:26;;;;;;;28.03;11.40;;;;;;;;;;6274630;22;20180;-89
2021/10/12 06:09:31;;;;;;;28.60;11.63;;;;;;;;;;6277770;22;20170;-90
2021/10/12 06:12:37;;;;;;;26.97;12.43;;;;;;;;;;6276286;22;20170;-91
2021/10/12 06:15:43;;;;;;;27.67;11.97;;;;;;;;;;6276911;22;20186;-89
2021/10/12 06:18:53;;;;;;;33.03;12.67;;;;;;;;;;6277319;22;20169;-90
2021/10/12 06:21:58;;;;;;;30.80;12.47;;;;;;;;;;6278068;22;20162;-92
2021/10/12 06:25:04;;;;;;;29.10;13.83;;;;;;;;;;6277399;22;20193;-91
2021/10/12 06:28:11;;;;;;;26.70;12.30;;;;;;;;;;6275396;22;20166;-92
2021/10/12 06:31:17;;;;;;;27.57;13.07;;;;;;;;;;6277107;22;20158;-91
2021/10/12 06:34:24;;;;;;;33.63;13.83;;;;;;;;;;6274349;22;20169;-90
2021/10/12 06:37:29;;;;;;;27.23;13.03;;;;;;;;;;6273652;22;20277;-90
2021/10/12 06:40:35;;;;;;;31.70;14.03;;;;;;;;;;6273617;22;20169;-91
2021/10/12 06:43:40;;;;;;;31.67;12.67;;;;;;;;;;6274977;22;20247;-90
2021/10/12 06:46:46;;;;;;;32.80;15.13;;;;;;;;;;6276780;22;20161;-90
2021/10/12 06:49:53;;;;;;;35.10;14.60;;;;;;;;;;6274935;22;20174;-91
2021/10/12 06:52:58;;;;;;;37.87;14.43;;;;;;;;;;6274395;22;20177;-90
2021/10/12 06:56:04;;;;;;;34.17;15.30;;;;;;;;;;6275129;22;20165;-91
2021/10/12 06:59:19;;;;;;;37.75;15.82;;;;;;;;;;6279102;22;20165;-91
2021/10/12 07:02:24;;;;;;;36.37;14.30;;;;;;;;;;6279575;22;20169;-90
2021/10/12 07:05:36;;;;;;;34.50;15.07;;;;;;;;;;6275785;22;20221;-91
2021/10/12 07:08:41;;;;;;;34.28;14.50;;;;;;;;;;6291097;22;20182;-90
2021/10/12 07:11:46;;;;;;;40.53;17.07;;;;;;;;;;6293534;22;20161;-91
2021/10/12 07:14:51;;;;;;;32.35;16.20;;;;;;;;;;6294268;22;20213;-89
2021/10/12 07:17:56;;;;;;;38.22;16.90;;;;;;;;;;6294967;22;20157;-91
2021/10/12 16:24:31;;;;;;;12.07;5.97;;;;;;;;;;6273277;22;20197;-90
2021/10/12 16:27:42;;;;;;;10.38;5.95;;;;;;;;;;6272849;22;20246;-89
2021/10/12 16:30:47;;;;;;;15.20;6.90;;;;;;;;;;6271576;22;20223;-90
2021/10/12 16:34:01;;;;;;;12.88;6.38;;;;;;;;;;6274245;22;20170;-90
2021/10/12 16:37:09;;;;;;;13.73;5.97;;;;;;;;;;6272431;22;20197;-90
2021/10/12 16:40:16;;;;;;;12.63;6.65;;;;;;;;;;6276222;22;20200;-89
2021/10/12 16:43:37;;;;;;;14.55;7.10;;;;;;;;;;6257757;22;20165;-88
2021/10/12 16:46:52;;;;;;;18.70;8.05;;;;;;;;;;6273979;22;20225;-88
2021/10/12 16:49:57;;;;;;;15.45;7.88;;;;;;;;;;6276466;22;20236;-89
2021/10/12 16:53:18;;;;;;;15.65;6.60;;;;;;;;;;6272061;22;20178;-90
2021/10/12 16:56:27;;;;;;;15.05;7.03;;;;;;;;;;6277124;22;20169;-91
2021/10/12 16:59:32;;;;;;;13.57;6.97;;;;;;;;;;6275702;22;20169;-89
2021/10/12 17:02:42;;;;;;;20.00;7.78;;;;;;;;;;6273261;22;20193;-87
2021/10/12 17:05:47;;;;;;;13.93;7.30;;;;;;;;;;6275817;22;20236;-89
2021/10/12 17:08:53;;;;;;;15.23;7.57;;;;;;;;;;6275743;22;20246;-89
2021/10/12 17:12:17;;;;;;;14.90;7.05;;;;;;;;;;6280667;22;20232;-88
2021/10/12 22:02:54;;;;;;;1.90;1.10;;;;;;;;;;6268076;22;20214;-89
2021/10/12 22:05:59;;;;;;;2.40;0.73;;;;;;;;;;6270076;22;20699;-88
2021/10/12 22:09:04;;;;;;;2.20;1.30;;;;;;;;;;6269181;22;20269;-90
2021/10/12 22:12:09;;;;;;;2.00;1.33;;;;;;;;;;6268525;22;20157;-88
2021/10/12 22:15:14;;;;;;;3.03;1.70;;;;;;;;;;6267565;22;20166;-88
2021/10/12 22:18:21;;;;;;;1.90;0.70;;;;;;;;;;6267715;22;20244;-88
2021/10/12 22:21:26;;;;;;;2.17;1.73;;;;;;;;;;6268309;22;20173;-89
2021/10/12 22:24:31;;;;;;;4.83;0.60;;;;;;;;;;6268174;22;20193;-88
2021/10/12 22:27:36;;;;;;;1.67;0.90;;;;;;;;;;6268106;22;20189;-89
2021/10/12 22:30:46;;;;;;;1.00;0.80;;;;;;;;;;6266544;22;20170;-90
2021/10/12 22:33:53;;;;;;;0.93;0.70;;;;;;;;;;6267499;22;20176;-89
2021/10/12 22:36:58;;;;;;;1.47;0.83;;;;;;;;;;6266994;22;20170;-88
2021/10/12 22:40:04;;;;;;;4.50;1.43;;;;;;;;;;6266511;22;20293;-90
2021/10/12 22:43:09;;;;;;;5.07;2.47;;;;;;;;;;6265610;22;20157;-89
2021/10/12 22:46:15;;;;;;;1.63;1.00;;;;;;;;;;6267156;22;20189;-90
2021/10/12 22:49:22;;;;;;;3.07;1.23;;;;;;;;;;6265573;22;20178;-89
2021/10/12 22:52:28;;;;;;;2.43;1.10;;;;;;;;;;6267847;22;20161;-90
2021/10/12 22:55:33;;;;;;;2.73;1.13;;;;;;;;;;6267215;22;20178;-90
2021/10/12 22:58:38;;;;;;;3.40;1.17;;;;;;;;;;6267541;22;20154;-89
2021/10/12 23:01:44;;;;;;;2.20;1.00;;;;;;;;;;6267613;22;20178;-90
2021/10/12 23:04:50;;;;;;;1.33;0.90;;;;;;;;;;6267502;22;20185;-89
2021/10/12 23:07:55;;;;;;;1.13;0.87;;;;;;;;;;6266425;22;20170;-92
2021/10/12 23:11:00;;;;;;;1.33;0.80;;;;;;;;;;6266641;22;20150;-90
2021/10/12 23:14:06;;;;;;;2.03;1.13;;;;;;;;;;6266036;22;20173;-89
2021/10/12 23:17:11;;;;;;;1.27;0.80;;;;;;;;;;6264958;22;20612;-90
2021/10/12 23:20:18;;;;;;;3.27;1.83;;;;;;;;;;6266317;22;20301;-90
2021/10/12 23:23:24;;;;;;;2.17;0.93;;;;;;;;;;6267034;22;20170;-90
2021/10/12 23:26:29;;;;;;;2.40;0.90;;;;;;;;;;6267538;22;20656;-90
2021/10/12 23:29:34;;;;;;;1.50;1.00;;;;;;;;;;6268431;22;20166;-90
2021/10/12 23:32:39;;;;;;;6.10;2.17;;;;;;;;;;6268287;22;20173;-91
2021/10/12 23:35:47;;;;;;;3.27;1.30;;;;;;;;;;6268553;22;20210;-89
2021/10/12 23:38:52;;;;;;;1.93;1.20;;;;;;;;;;6267980;22;20170;-90
2021/10/12 23:41:57;;;;;;;3.43;1.23;;;;;;;;;;6269331;22;20605;-90
2021/10/12 23:45:02;;;;;;;3.50;1.10;;;;;;;;;;6269665;22;20567;-90
2021/10/12 23:48:08;;;;;;;3.93;1.20;;;;;;;;;;6268152;22;20189;-90
2021/10/12 23:51:14;;;;;;;1.80;1.10;;;;;;;;;;6268486;22;20248;-90
2021/10/12 23:54:19;;;;;;;5.07;2.17;;;;;;;;;;6269022;22;20265;-90
2021/10/12 23:57:25;;;;;;;2.10;1.20;;;;;;;;;;6286679;22;20273;-90
